createdAt,value
2015-05-07T06:02:40.110Z,1024
2015-05-07T06:02:48.799Z,1024
2015-05-07T06:02:57.455Z,1024
2015-05-07T06:03:06.096Z,1024
2015-05-07T06:03:14.737Z,1024
2015-05-07T06:03:23.377Z,1178
2015-05-07T06:03:32.002Z,1075
2015-05-07T06:03:40.643Z,1024
2015-05-07T06:03:49.301Z,1024
2015-05-07T06:03:58.442Z,1024
2015-05-07T06:04:07.098Z,1152
2015-05-07T06:04:15.723Z,1024
2015-05-07T06:04:24.379Z,1024
2015-05-07T06:04:33.067Z,1024
2015-05-07T06:04:41.723Z,1152
2015-05-07T06:04:50.414Z,998
2015-05-07T06:04:59.054Z,1024
2015-05-07T06:05:07.710Z,1024
2015-05-07T06:05:16.335Z,1024
2015-05-07T06:05:25.007Z,1024
2015-05-07T06:05:33.632Z,1024
2015-05-07T06:05:42.273Z,1024
2015-05-07T06:05:51.461Z,1024
2015-05-07T06:06:00.102Z,998
2015-05-07T06:06:08.790Z,1024
2015-05-07T06:06:17.993Z,1024
2015-05-07T06:06:26.665Z,1024
2015-05-07T06:06:35.383Z,1024
2015-05-07T06:06:44.071Z,1024
2015-05-07T06:06:52.777Z,1024
2015-05-07T06:07:01.433Z,1024
2015-05-07T06:07:10.074Z,1024
2015-05-07T06:07:18.589Z,1024
2015-05-07T06:07:27.261Z,1024
2015-05-07T06:07:35.871Z,1024
2015-05-07T06:08:19.655Z,1024
2015-05-07T06:08:28.342Z,1178
2015-05-07T06:08:36.983Z,1152
2015-05-07T06:08:45.624Z,1024
2015-05-07T06:08:54.298Z,1024
2015-05-07T06:09:03.532Z,1024
2015-05-07T06:10:29.176Z,40
2015-05-07T06:10:37.832Z,41
2015-05-07T06:10:46.566Z,40
2015-05-07T06:10:55.222Z,40
2015-05-07T06:11:03.896Z,40
2015-05-07T06:11:12.943Z,46
2015-05-07T06:11:21.615Z,45
2015-05-07T06:11:30.303Z,46
2015-05-07T06:11:39.006Z,46
2015-05-07T06:15:20.719Z,45
2015-05-07T06:16:29.361Z,46
2015-05-07T06:17:38.005Z,40
2015-05-07T06:18:47.335Z,40
2015-05-07T06:19:46.526Z,42
2015-05-07T06:20:55.185Z,40
2015-05-07T06:22:03.765Z,40
2015-05-07T06:23:13.048Z,40
2015-05-07T06:24:22.114Z,40
2015-05-07T06:25:30.772Z,41
2015-05-07T06:26:39.383Z,41
2015-05-07T06:27:47.996Z,41
2015-05-07T06:28:56.607Z,41
2015-05-07T06:30:05.220Z,41
2015-05-07T06:31:13.832Z,41
2015-05-07T06:32:22.459Z,41
2015-05-07T06:33:31.086Z,40
2015-05-07T06:34:39.748Z,41
2015-05-07T06:35:48.843Z,40
2015-05-07T06:36:57.518Z,41
2015-05-07T06:38:06.160Z,40
2015-05-07T06:39:14.773Z,40
2015-05-07T06:40:23.400Z,40
2015-05-07T06:41:32.075Z,40
2015-05-07T06:42:41.264Z,40
2015-05-07T06:43:49.860Z,40
2015-05-07T06:44:58.458Z,41
2015-05-07T06:46:07.132Z,41
2015-05-07T06:47:15.774Z,41
2015-05-07T06:48:24.402Z,41
2015-05-07T06:49:33.031Z,41
2015-05-07T06:50:41.611Z,41
2015-05-07T06:51:50.224Z,41
2015-05-07T06:52:58.836Z,41
2015-05-07T06:54:07.432Z,41
2015-05-07T06:55:16.075Z,41
2015-05-07T06:56:24.703Z,41
2015-05-07T06:57:33.362Z,41
2015-05-07T06:58:42.004Z,41
2015-05-07T06:59:50.694Z,41
2015-05-07T07:00:59.322Z,41
2015-05-07T07:02:07.933Z,40
2015-05-07T07:03:16.561Z,41
2015-05-07T07:04:25.189Z,40
2015-05-07T07:05:33.834Z,40
2015-05-07T07:07:33.149Z,40
2015-05-07T07:08:41.795Z,40
2015-05-07T07:09:50.422Z,40
2015-05-07T07:10:59.097Z,40
2015-05-07T07:12:07.755Z,40
2015-05-07T07:13:16.383Z,40
2015-05-07T07:14:24.994Z,40
2015-05-07T07:15:33.590Z,40
2015-05-07T07:16:42.156Z,40
2015-05-07T07:18:50.113Z,40
2015-05-07T07:19:58.725Z,40
2015-05-07T07:21:07.384Z,40
2015-05-07T07:22:16.011Z,40
2015-05-07T07:23:24.702Z,40
2015-05-07T07:24:33.313Z,40
2015-05-07T07:25:41.928Z,40
2015-05-07T07:26:50.523Z,40
2015-05-07T07:27:59.136Z,40
2015-05-07T07:29:07.747Z,40
2015-05-07T07:30:16.375Z,40
2015-05-07T07:31:25.018Z,40
2015-05-07T07:32:33.630Z,40
2015-05-07T07:33:42.304Z,40
2015-05-07T07:34:50.885Z,40
2015-05-07T07:35:59.512Z,40
2015-05-07T07:37:08.109Z,40
2015-05-07T07:38:16.767Z,40
2015-05-07T07:39:25.379Z,40
2015-05-07T07:40:33.975Z,40
2015-05-07T07:41:42.621Z,40
2015-05-07T07:42:51.279Z,40
2015-05-07T07:43:59.923Z,40
2015-05-07T07:45:08.565Z,40
2015-05-07T07:46:17.192Z,40
2015-05-07T07:47:25.820Z,40
2015-05-07T07:48:34.401Z,40
2015-05-07T07:49:43.013Z,40
2015-05-07T07:50:51.656Z,40
2015-05-07T07:52:00.268Z,40
2015-05-07T07:53:08.911Z,40
2015-05-07T07:54:17.554Z,40
2015-05-07T07:55:26.167Z,40
2015-05-07T07:56:34.872Z,40
2015-05-07T07:57:43.532Z,40
2015-05-07T07:58:52.129Z,40
2015-05-07T08:00:00.788Z,40
2015-05-07T08:01:09.399Z,40
2015-05-07T08:02:18.027Z,40
2015-05-07T08:03:26.670Z,40
2015-05-07T08:04:35.297Z,40
2015-05-07T08:05:43.971Z,40
2015-05-07T08:06:52.583Z,40
2015-05-07T08:08:01.195Z,40
2015-05-07T08:09:09.807Z,40
2015-05-07T08:10:18.404Z,40
2015-05-07T08:11:27.015Z,40
2015-05-07T08:12:35.581Z,40
2015-05-07T08:13:44.211Z,40
2015-05-07T08:14:52.842Z,40
2015-05-07T08:16:01.489Z,40
2015-05-07T08:17:10.134Z,40
2015-05-07T08:18:18.781Z,40
2015-05-07T08:19:27.426Z,40
2015-05-07T08:20:36.065Z,40
2015-05-07T08:21:44.699Z,40
2015-05-07T08:22:53.334Z,40
2015-05-07T08:24:01.951Z,40
2015-05-07T08:25:10.602Z,40
2015-05-07T08:26:19.246Z,40
2015-05-07T08:27:27.940Z,40
2015-05-07T08:28:36.574Z,40
2015-05-07T08:29:45.172Z,40
2015-05-07T08:30:53.816Z,40
2015-05-07T08:32:02.413Z,40
2015-05-07T08:33:11.714Z,40
2015-05-07T08:34:20.358Z,40
2015-05-07T08:35:28.954Z,40
2015-05-07T08:36:38.535Z,40
2015-05-07T08:37:47.194Z,40
2015-05-07T08:38:55.946Z,40
2015-05-07T08:40:04.574Z,40
2015-05-07T08:41:13.158Z,40
2015-05-07T08:42:21.816Z,40
2015-05-07T08:43:30.491Z,40
2015-05-07T08:44:39.055Z,40
2015-05-07T08:45:47.698Z,40
2015-05-07T08:46:56.310Z,40
2015-05-07T08:48:04.984Z,40
2015-05-07T08:49:13.567Z,40
2015-05-07T08:50:22.179Z,40
2015-05-07T08:51:30.868Z,40
2015-05-07T08:52:39.495Z,40
2015-05-07T08:53:48.106Z,40
2015-05-07T08:54:56.703Z,40
2015-05-07T08:56:05.361Z,40
2015-05-07T08:57:14.023Z,40
2015-05-07T08:58:22.650Z,40
2015-05-07T08:59:31.246Z,40
2015-05-07T09:00:39.842Z,40
2015-05-07T09:01:48.438Z,40
2015-05-07T09:02:57.035Z,40
2015-05-07T09:04:05.630Z,40
2015-05-07T09:05:14.273Z,40
2015-05-07T09:06:22.919Z,40
2015-05-07T09:07:31.515Z,40
2015-05-07T09:08:40.174Z,40
2015-05-07T09:09:48.816Z,40
2015-05-07T09:10:57.459Z,40
2015-05-07T09:12:06.103Z,40
2015-05-07T09:13:14.714Z,40
2015-05-07T09:14:23.326Z,40
2015-05-07T09:15:31.955Z,40
2015-05-07T09:16:40.535Z,40
2015-05-07T09:17:49.179Z,40
2015-05-07T09:18:57.806Z,40
2015-05-07T09:20:06.433Z,40
2015-05-07T09:21:15.030Z,40
2015-05-07T09:22:23.688Z,40
2015-05-07T09:23:32.318Z,40
2015-05-07T09:24:40.914Z,40
2015-05-07T09:25:49.542Z,40
2015-05-07T09:26:58.169Z,40
2015-05-07T09:28:06.780Z,40
2015-05-07T09:29:15.377Z,40
2015-05-07T09:30:24.003Z,40
2015-05-07T09:31:32.647Z,40
2015-05-07T09:32:41.322Z,40
2015-05-07T09:33:49.935Z,40
2015-05-07T09:34:58.563Z,40
2015-05-07T09:36:07.174Z,40
2015-05-07T09:37:15.832Z,40
2015-05-07T09:38:24.460Z,40
2015-05-07T09:39:33.103Z,40
2015-05-07T09:40:41.793Z,40
2015-05-07T09:41:50.423Z,40
2015-05-07T09:43:03.800Z,40
2015-05-07T09:44:12.459Z,40
2015-05-07T09:45:21.133Z,40
2015-05-07T09:46:29.791Z,40
2015-05-07T09:47:38.513Z,40
2015-05-07T09:48:47.156Z,40
2015-05-07T09:49:55.783Z,40
2015-05-07T09:51:04.488Z,40
2015-05-07T09:52:13.162Z,40
2015-05-07T09:53:21.808Z,40
2015-05-07T09:54:30.420Z,40
2015-05-07T09:55:39.033Z,40
2015-05-07T09:56:47.659Z,40
2015-05-07T09:57:56.318Z,40
2015-05-07T09:59:04.962Z,40
2015-05-07T10:00:13.573Z,40
2015-05-07T10:01:22.137Z,40
2015-05-07T10:02:30.719Z,40
2015-05-07T10:03:39.362Z,40
2015-05-07T10:04:48.036Z,40
2015-05-07T10:05:56.694Z,40
2015-05-07T10:07:05.353Z,40
2015-05-07T10:08:13.999Z,40
2015-05-07T10:09:22.611Z,40
2015-05-07T10:10:31.239Z,40
2015-05-07T10:11:39.881Z,40
2015-05-07T10:12:48.508Z,40
2015-05-07T10:13:57.183Z,40
2015-05-07T10:15:05.841Z,40
2015-05-07T10:16:14.704Z,40
2015-05-07T10:17:23.331Z,40
2015-05-07T10:18:31.959Z,40
2015-05-07T10:19:40.601Z,40
2015-05-07T10:20:49.229Z,40
2015-05-07T10:21:57.841Z,40
2015-05-07T10:23:07.080Z,40
2015-05-07T10:24:16.598Z,40
2015-05-07T10:25:25.475Z,40
2015-05-07T10:26:34.477Z,40
2015-05-07T10:27:43.370Z,40
2015-05-07T10:28:51.966Z,40
2015-05-07T10:30:00.610Z,40
2015-05-07T10:31:09.237Z,40
2015-05-07T10:32:18.351Z,40
2015-05-07T10:33:27.119Z,40
2015-05-07T10:34:35.714Z,40
2015-05-07T10:35:44.311Z,40
2015-05-07T10:36:52.938Z,40
2015-05-07T10:38:01.550Z,40
2015-05-07T10:39:10.178Z,40
2015-05-07T10:40:18.805Z,40
2015-05-07T10:41:27.466Z,40
2015-05-07T10:42:36.077Z,40
2015-05-07T10:43:44.720Z,40
2015-05-07T10:44:53.332Z,40
2015-05-07T10:46:01.975Z,40
2015-05-07T10:47:10.603Z,40
2015-05-07T10:48:19.199Z,40
2015-05-07T10:49:27.842Z,40
2015-05-07T10:50:36.439Z,40
2015-05-07T10:51:45.082Z,40
2015-05-07T10:52:53.758Z,40
2015-05-07T10:54:02.384Z,40
2015-05-07T10:55:11.450Z,40
2015-05-07T10:56:20.078Z,40
2015-05-07T10:57:28.705Z,40
2015-05-07T10:58:37.332Z,40
2015-05-07T10:59:45.960Z,40
2015-05-07T11:00:54.587Z,40
2015-05-07T11:02:03.185Z,40
2015-05-07T11:03:11.796Z,40
2015-05-07T11:04:20.393Z,40
2015-05-07T11:05:29.020Z,40
2015-05-07T11:06:37.662Z,40
2015-05-07T11:07:46.290Z,40
2015-05-07T11:08:54.872Z,40
2015-05-07T11:10:03.467Z,40
2015-05-07T11:11:12.097Z,40
2015-05-07T11:12:20.787Z,40
2015-05-07T11:13:29.462Z,40
2015-05-07T11:14:38.104Z,40
2015-05-07T11:15:46.700Z,40
2015-05-07T11:16:55.343Z,40
2015-05-07T11:18:03.939Z,40
2015-05-07T11:19:12.552Z,40
2015-05-07T11:20:21.179Z,40
2015-05-07T11:21:29.793Z,40
2015-05-07T11:22:38.405Z,40
2015-05-07T11:23:47.079Z,40
2015-05-07T11:24:55.721Z,40
2015-05-07T11:26:04.318Z,40
2015-05-07T11:27:12.914Z,40
2015-05-07T11:28:21.556Z,40
2015-05-07T11:29:30.184Z,40
2015-05-07T11:30:38.830Z,40
2015-05-07T11:31:51.660Z,40
2015-05-07T11:33:00.240Z,40
2015-05-07T11:34:08.867Z,40
2015-05-07T11:35:17.511Z,40
2015-05-07T11:36:26.200Z,40
2015-05-07T11:37:34.828Z,40
2015-05-07T11:38:43.486Z,40
2015-05-07T11:39:52.101Z,40
2015-05-07T11:41:00.743Z,40
2015-05-07T11:42:09.730Z,40
2015-05-07T11:43:18.358Z,40
2015-05-07T11:44:26.954Z,40
2015-05-07T11:45:35.597Z,40
2015-05-07T11:46:44.240Z,40
2015-05-07T11:47:52.898Z,40
2015-05-07T11:49:01.559Z,40
2015-05-07T11:50:10.155Z,40
2015-05-07T11:51:18.736Z,40
2015-05-07T11:52:27.332Z,40
2015-05-07T11:53:35.944Z,40
2015-05-07T11:54:44.603Z,40
2015-05-07T11:55:53.245Z,40
2015-05-07T11:57:01.858Z,40
2015-05-07T11:58:10.438Z,40
2015-05-07T11:59:19.066Z,40
2015-05-07T12:00:27.710Z,40
2015-05-07T12:01:36.323Z,40
2015-05-07T12:02:44.934Z,40
2015-05-07T12:03:53.561Z,40
2015-05-07T12:05:02.205Z,40
2015-05-07T12:06:10.816Z,40
2015-05-07T12:07:19.459Z,40
2015-05-07T12:08:28.056Z,40
2015-05-07T12:09:36.684Z,40
2015-05-07T12:10:45.280Z,40
2015-05-07T12:11:53.893Z,40
2015-05-07T12:13:02.566Z,40
2015-05-07T12:14:11.193Z,40
2015-05-07T12:15:19.821Z,40
2015-05-07T12:16:28.433Z,40
2015-05-07T12:17:37.561Z,40
2015-05-07T12:18:46.172Z,40
2015-05-07T12:19:54.787Z,40
2015-05-07T12:21:03.415Z,40
2015-05-07T12:22:12.042Z,40
2015-05-07T12:23:20.653Z,40
2015-05-07T12:24:29.264Z,40
2015-05-07T12:25:37.924Z,40
2015-05-07T12:26:46.519Z,40
2015-05-07T12:27:55.147Z,40
2015-05-07T12:29:03.777Z,40
2015-05-07T12:30:12.388Z,40
2015-05-07T12:31:21.046Z,40
2015-05-07T12:32:29.674Z,40
2015-05-07T12:33:38.271Z,40
2015-05-07T12:34:46.882Z,40
2015-05-07T12:35:55.525Z,40
2015-05-07T12:37:04.153Z,40
2015-05-07T12:38:12.782Z,40
2015-05-07T12:39:21.377Z,40
2015-05-07T12:40:30.005Z,40
2015-05-07T12:41:38.648Z,40
2015-05-07T12:42:47.275Z,40
2015-05-07T12:43:55.888Z,40
2015-05-07T12:45:04.625Z,40
2015-05-07T12:46:13.267Z,40
2015-05-07T12:47:21.880Z,40
2015-05-07T12:48:30.491Z,40
2015-05-07T12:49:39.181Z,40
2015-05-07T12:50:47.812Z,40
2015-05-07T12:51:56.438Z,40
2015-05-07T12:53:05.034Z,40
2015-05-07T12:54:13.677Z,40
2015-05-07T12:55:22.288Z,40
2015-05-07T12:56:30.932Z,40
2015-05-07T12:57:39.576Z,40
2015-05-07T12:58:48.234Z,40
2015-05-07T12:59:56.894Z,40
2015-05-07T13:01:05.506Z,40
2015-05-07T13:02:14.148Z,40
2015-05-07T13:03:22.777Z,40
2015-05-07T13:04:31.420Z,40
2015-05-07T13:05:40.078Z,40
2015-05-07T13:06:48.690Z,40
2015-05-07T13:07:57.286Z,40
2015-05-07T13:09:05.898Z,40
2015-05-07T13:10:14.541Z,40
2015-05-07T13:11:23.187Z,40
2015-05-07T13:12:31.845Z,40
2015-05-07T13:13:40.488Z,40
2015-05-07T13:14:49.131Z,40
2015-05-07T13:15:57.743Z,40
2015-05-07T13:17:06.354Z,40
2015-05-07T13:18:14.997Z,40
2015-05-07T13:19:23.656Z,40
2015-05-07T13:20:32.254Z,40
2015-05-07T13:21:40.865Z,40
2015-05-07T13:22:49.524Z,40
2015-05-07T13:23:58.136Z,40
2015-05-07T13:25:06.748Z,40
2015-05-07T13:26:15.391Z,40
2015-05-07T13:27:23.987Z,40
2015-05-07T13:28:32.616Z,40
2015-05-07T13:29:41.212Z,40
2015-05-07T13:30:49.808Z,40
2015-05-07T13:31:58.420Z,40
2015-05-07T13:33:07.032Z,40
2015-05-07T13:34:15.627Z,40
2015-05-07T13:35:24.240Z,40
2015-05-07T13:36:32.867Z,40
2015-05-07T13:37:41.559Z,40
2015-05-07T13:38:50.172Z,40
2015-05-07T13:39:58.830Z,40
2015-05-07T13:41:07.441Z,40
2015-05-07T13:42:16.069Z,40
2015-05-07T13:43:24.728Z,40
2015-05-07T13:44:33.370Z,40
2015-05-07T13:45:42.045Z,40
2015-05-07T13:46:50.656Z,41
2015-05-07T13:47:59.271Z,40
2015-05-07T13:49:07.882Z,41
2015-05-07T13:50:16.510Z,41
2015-05-07T13:51:25.137Z,40
2015-05-07T13:52:33.780Z,40
2015-05-07T13:53:42.361Z,40
2015-05-07T13:54:51.004Z,40
2015-05-07T13:55:59.571Z,40
2015-05-07T13:57:08.245Z,40
2015-05-07T13:58:16.856Z,40
2015-05-07T13:59:25.390Z,40
2015-05-07T14:00:34.002Z,40
2015-05-07T14:01:42.629Z,40
2015-05-07T14:02:51.273Z,41
2015-05-07T14:03:59.900Z,40
2015-05-07T14:05:08.480Z,41
2015-05-07T14:06:17.110Z,40
2015-05-07T14:07:25.722Z,40
2015-05-07T14:08:34.349Z,40
2015-05-07T14:09:42.992Z,40
2015-05-07T14:10:51.604Z,40
2015-05-07T14:12:00.137Z,41
2015-05-07T14:13:08.780Z,40
2015-05-07T14:14:17.799Z,40
2015-05-07T14:15:26.410Z,40
2015-05-07T14:16:35.040Z,40
2015-05-07T14:17:43.651Z,41
2015-05-07T14:18:52.279Z,40
2015-05-07T14:20:00.891Z,40
2015-05-07T14:21:10.143Z,40
2015-05-07T14:22:18.754Z,40
2015-05-07T14:23:27.366Z,40
2015-05-07T14:24:35.978Z,40
2015-05-07T14:25:44.577Z,40
2015-05-07T14:26:53.204Z,40
2015-05-07T14:28:01.832Z,40
2015-05-07T14:29:10.459Z,41
2015-05-07T14:30:19.132Z,40
2015-05-07T14:31:27.760Z,41
2015-05-07T14:32:36.372Z,40
2015-05-07T14:33:45.014Z,40
2015-05-07T14:34:53.626Z,41
2015-05-07T14:36:02.256Z,41
2015-05-07T14:37:10.884Z,40
2015-05-07T14:38:19.495Z,40
2015-05-07T14:39:28.701Z,40
2015-05-07T14:40:37.330Z,40
2015-05-07T14:41:45.909Z,40
2015-05-07T14:42:54.475Z,40
2015-05-07T14:44:03.102Z,40
2015-05-07T14:45:11.730Z,40
2015-05-07T14:46:20.341Z,40
2015-05-07T14:47:29.001Z,40
2015-05-07T14:48:37.598Z,40
2015-05-07T14:49:46.258Z,40
2015-05-07T14:50:54.900Z,40
2015-05-07T14:52:03.543Z,41
2015-05-07T14:53:12.608Z,40
2015-05-07T14:54:21.251Z,40
2015-05-07T14:56:26.803Z,40
2015-05-07T14:57:35.414Z,40
2015-05-07T14:58:44.044Z,40
2015-05-07T14:59:52.646Z,40
2015-05-07T15:01:01.304Z,40
2015-05-07T15:02:09.915Z,40
2015-05-07T15:03:18.542Z,41
2015-05-07T15:04:27.169Z,40
2015-05-07T15:05:35.813Z,41
2015-05-07T15:06:44.424Z,41
2015-05-07T15:07:53.052Z,40
2015-05-07T15:09:02.026Z,40
2015-05-07T15:10:10.684Z,40
2015-05-07T15:11:20.391Z,41
2015-05-07T15:12:29.018Z,40
2015-05-07T15:13:37.630Z,40
2015-05-07T15:14:46.303Z,40
2015-05-07T15:15:54.963Z,40
2015-05-07T15:17:03.590Z,40
2015-05-07T15:18:12.201Z,40
2015-05-07T15:19:20.829Z,41
2015-05-07T15:20:29.443Z,41
2015-05-07T15:21:38.085Z,40
2015-05-07T15:22:46.729Z,41
2015-05-07T15:23:55.372Z,40
2015-05-07T15:25:04.561Z,40
2015-05-07T15:26:13.174Z,40
2015-05-07T15:27:21.785Z,40
2015-05-07T15:28:30.459Z,41
2015-05-07T15:29:39.511Z,41
2015-05-07T15:30:48.122Z,41
2015-05-07T15:31:56.766Z,41
2015-05-07T15:33:05.393Z,41
2015-05-07T15:34:14.051Z,41
2015-05-07T15:35:22.725Z,41
2015-05-07T15:36:31.368Z,40
2015-05-07T15:37:40.433Z,41
2015-05-07T15:38:49.064Z,41
2015-05-07T15:39:57.691Z,41
2015-05-07T15:41:06.318Z,41
2015-05-07T15:42:14.961Z,41
2015-05-07T15:43:23.573Z,41
2015-05-07T15:44:32.217Z,41
2015-05-07T15:45:40.890Z,41
2015-05-07T15:46:49.533Z,41
2015-05-07T15:47:58.067Z,41
2015-05-07T15:49:06.710Z,41
2015-05-07T15:50:15.965Z,41
2015-05-07T15:51:24.654Z,41
2015-05-07T15:52:33.782Z,41
2015-05-07T15:53:42.456Z,41
2015-05-07T15:54:51.130Z,41
2015-05-07T15:55:59.789Z,41
2015-05-07T15:57:08.448Z,41
2015-05-07T15:58:17.090Z,41
2015-05-07T15:59:25.736Z,41
2015-05-07T16:00:34.332Z,41
2015-05-07T16:01:42.959Z,41
2015-05-07T16:02:51.617Z,41
2015-05-07T16:04:00.261Z,41
2015-05-07T16:05:15.294Z,41
2015-05-07T16:06:23.922Z,41
2015-05-07T16:07:32.582Z,41
2015-05-07T16:08:41.210Z,41
2015-05-07T16:09:49.806Z,41
2015-05-07T16:10:58.417Z,41
2015-05-07T16:12:07.061Z,41
2015-05-07T16:13:16.110Z,41
2015-05-07T16:14:24.753Z,41
2015-05-07T16:15:33.413Z,41
2015-05-07T16:16:42.055Z,41
2015-05-07T16:17:50.667Z,41
2015-05-07T16:18:59.263Z,41
2015-05-07T16:20:07.877Z,41
2015-05-07T16:21:16.520Z,41
2015-05-07T16:22:25.179Z,41
2015-05-07T16:23:33.791Z,41
2015-05-07T16:24:42.449Z,41
2015-05-07T16:25:51.092Z,41
2015-05-07T16:26:59.735Z,41
2015-05-07T16:28:08.378Z,41
2015-05-07T16:29:17.116Z,41
2015-05-07T16:30:25.776Z,41
2015-05-07T16:31:34.403Z,41
2015-05-07T16:32:43.046Z,41
2015-05-07T16:33:51.720Z,41
2015-05-07T16:35:00.347Z,41
2015-05-07T16:37:00.071Z,41
2015-05-07T16:38:08.698Z,41
2015-05-07T16:39:17.387Z,41
2015-05-07T16:40:26.094Z,41
2015-05-07T16:41:34.738Z,41
2015-05-07T16:42:43.366Z,41
2015-05-07T16:43:52.009Z,41
2015-05-07T16:45:00.652Z,41
2015-05-07T16:46:09.279Z,41
2015-05-07T16:47:17.906Z,41
2015-05-07T16:48:26.614Z,41
2015-05-07T16:49:35.286Z,41
2015-05-07T16:50:43.930Z,41
2015-05-07T16:51:52.574Z,41
2015-05-07T16:53:01.294Z,41
2015-05-07T16:54:09.923Z,41
2015-05-07T16:55:18.567Z,41
2015-05-07T16:56:27.210Z,41
2015-05-07T16:57:35.869Z,41
2015-05-07T16:58:44.527Z,41
2015-05-07T16:59:53.123Z,41
2015-05-07T17:01:01.751Z,41
2015-05-07T17:02:11.083Z,41
2015-05-07T17:03:19.741Z,40
2015-05-07T17:04:28.432Z,41
2015-05-07T17:05:37.091Z,41
2015-05-07T17:06:45.718Z,41
2015-05-07T17:07:54.408Z,41
2015-05-07T17:09:06.067Z,41
2015-05-07T17:10:14.709Z,40
2015-05-07T17:11:23.322Z,41
2015-05-07T17:12:31.949Z,41
2015-05-07T17:13:40.578Z,41
2015-05-07T17:14:49.206Z,41
2015-05-07T17:15:57.865Z,41
2015-05-07T17:17:06.492Z,41
2015-05-07T17:18:15.166Z,41
2015-05-07T17:19:24.465Z,41
2015-05-07T17:20:33.124Z,41
2015-05-07T17:21:41.753Z,41
2015-05-07T17:22:50.825Z,41
2015-05-07T17:23:59.462Z,41
2015-05-07T17:25:08.099Z,41
2015-05-07T17:26:17.190Z,41
2015-05-07T17:27:25.852Z,41
2015-05-07T17:28:34.484Z,41
2015-05-07T17:29:43.100Z,41
2015-05-07T17:30:51.762Z,41
2015-05-07T17:32:00.423Z,41
2015-05-07T17:33:09.086Z,41
2015-05-07T17:34:17.746Z,41
2015-05-07T17:35:26.281Z,41
2015-05-07T17:36:35.455Z,41
2015-05-07T17:37:44.083Z,41
2015-05-07T17:38:52.773Z,41
2015-05-07T17:40:01.448Z,41
